sensor_id;sensor_type;location;lat;lon;timestamp;temperature;humidity
8957;DHT22;4513;50.054;8.230;2022-08-21T00:01:51;19.20;93.70
8957;DHT22;4513;50.054;8.230;2022-08-21T00:04:18;19.10;94.30
8957;DHT22;4513;50.054;8.230;2022-08-21T00:06:45;18.90;94.80
8957;DHT22;4513;50.054;8.230;2022-08-21T00:09:12;18.80;95.00
8957;DHT22;4513;50.054;8.230;2022-08-21T00:11:40;18.60;95.30
8957;DHT22;4513;50.054;8.230;2022-08-21T00:14:09;18.50;95.70
8957;DHT22;4513;50.054;8.230;2022-08-21T00:16:36;18.50;95.90
8957;DHT22;4513;50.054;8.230;2022-08-21T00:19:05;18.30;96.30
8957;DHT22;4513;50.054;8.230;2022-08-21T00:21:32;18.30;96.50
8957;DHT22;4513;50.054;8.230;2022-08-21T00:23:59;18.20;96.70
8957;DHT22;4513;50.054;8.230;2022-08-21T00:26:26;18.20;96.70
8957;DHT22;4513;50.054;8.230;2022-08-21T00:28:54;18.20;96.70
8957;DHT22;4513;50.054;8.230;2022-08-21T00:31:21;18.20;97.30
8957;DHT22;4513;50.054;8.230;2022-08-21T00:33:48;18.10;97.80
8957;DHT22;4513;50.054;8.230;2022-08-21T00:36:15;18.00;98.20
8957;DHT22;4513;50.054;8.230;2022-08-21T00:38:42;18.00;98.30
8957;DHT22;4513;50.054;8.230;2022-08-21T00:41:10;18.00;98.80
8957;DHT22;4513;50.054;8.230;2022-08-21T00:43:38;17.90;99.10
8957;DHT22;4513;50.054;8.230;2022-08-21T00:46:07;18.00;98.60
8957;DHT22;4513;50.054;8.230;2022-08-21T00:48:34;18.00;99.10
8957;DHT22;4513;50.054;8.230;2022-08-21T00:51:05;18.00;98.60
8957;DHT22;4513;50.054;8.230;2022-08-21T00:53:36;18.00;98.80
8957;DHT22;4513;50.054;8.230;2022-08-21T00:56:05;18.00;98.30
8957;DHT22;4513;50.054;8.230;2022-08-21T00:58:34;17.90;98.80
8957;DHT22;4513;50.054;8.230;2022-08-21T01:01:04;17.90;98.90
8957;DHT22;4513;50.054;8.230;2022-08-21T01:03:33;17.80;99.10
8957;DHT22;4513;50.054;8.230;2022-08-21T01:06:01;17.80;99.00
8957;DHT22;4513;50.054;8.230;2022-08-21T01:08:30;17.80;98.80
8957;DHT22;4513;50.054;8.230;2022-08-21T01:10:58;17.80;99.60
8957;DHT22;4513;50.054;8.230;2022-08-21T01:13:26;17.70;99.70
8957;DHT22;4513;50.054;8.230;2022-08-21T01:15:56;17.70;99.70
8957;DHT22;4513;50.054;8.230;2022-08-21T01:18:25;17.70;99.70
8957;DHT22;4513;50.054;8.230;2022-08-21T01:21:08;17.70;99.70
8957;DHT22;4513;50.054;8.230;2022-08-21T01:23:36;17.70;99.90
8957;DHT22;4513;50.054;8.230;2022-08-21T01:26:05;17.70;99.90
8957;DHT22;4513;50.054;8.230;2022-08-21T01:28:36;17.80;99.90
8957;DHT22;4513;50.054;8.230;2022-08-21T01:31:06;17.80;99.90
8957;DHT22;4513;50.054;8.230;2022-08-21T01:33:33;17.70;99.90
8957;DHT22;4513;50.054;8.230;2022-08-21T01:36:00;17.60;99.90
8957;DHT22;4513;50.054;8.230;2022-08-21T01:38:29;17.60;99.90
8957;DHT22;4513;50.054;8.230;2022-08-21T01:40:56;17.60;99.90
8957;DHT22;4513;50.054;8.230;2022-08-21T01:43:23;17.50;99.90
8957;DHT22;4513;50.054;8.230;2022-08-21T01:45:50;17.40;99.90
8957;DHT22;4513;50.054;8.230;2022-08-21T01:48:17;17.30;99.90
8957;DHT22;4513;50.054;8.230;2022-08-21T01:50:44;17.40;99.90
8957;DHT22;4513;50.054;8.230;2022-08-21T01:53:10;17.40;99.90
8957;DHT22;4513;50.054;8.230;2022-08-21T01:55:40;17.40;99.90
8957;DHT22;4513;50.054;8.230;2022-08-21T01:58:07;17.30;99.90
8957;DHT22;4513;50.054;8.230;2022-08-21T02:00:34;17.30;99.90
8957;DHT22;4513;50.054;8.230;2022-08-21T02:03:00;17.20;99.90
8957;DHT22;4513;50.054;8.230;2022-08-21T02:05:27;17.20;99.90
8957;DHT22;4513;50.054;8.230;2022-08-21T02:07:54;17.10;99.90
8957;DHT22;4513;50.054;8.230;2022-08-21T02:10:25;17.00;99.90
8957;DHT22;4513;50.054;8.230;2022-08-21T02:12:53;17.00;99.90
8957;DHT22;4513;50.054;8.230;2022-08-21T02:15:20;16.90;99.90
8957;DHT22;4513;50.054;8.230;2022-08-21T02:17:50;16.70;99.90
8957;DHT22;4513;50.054;8.230;2022-08-21T02:20:20;16.70;99.90
8957;DHT22;4513;50.054;8.230;2022-08-21T02:22:48;16.60;99.90
8957;DHT22;4513;50.054;8.230;2022-08-21T02:25:16;16.80;99.90
8957;DHT22;4513;50.054;8.230;2022-08-21T02:27:44;16.70;99.90
8957;DHT22;4513;50.054;8.230;2022-08-21T02:30:17;16.70;99.90
8957;DHT22;4513;50.054;8.230;2022-08-21T02:32:44;16.70;99.90
8957;DHT22;4513;50.054;8.230;2022-08-21T02:35:11;16.80;99.90
8957;DHT22;4513;50.054;8.230;2022-08-21T02:37:46;16.80;99.90
8957;DHT22;4513;50.054;8.230;2022-08-21T02:40:14;16.80;99.90
8957;DHT22;4513;50.054;8.230;2022-08-21T02:42:41;16.80;99.90
8957;DHT22;4513;50.054;8.230;2022-08-21T02:45:10;16.80;99.90
8957;DHT22;4513;50.054;8.230;2022-08-21T02:47:38;16.80;99.90
8957;DHT22;4513;50.054;8.230;2022-08-21T02:50:06;16.90;99.90
8957;DHT22;4513;50.054;8.230;2022-08-21T02:52:33;16.90;99.90
8957;DHT22;4513;50.054;8.230;2022-08-21T02:55:01;17.00;99.90
8957;DHT22;4513;50.054;8.230;2022-08-21T02:57:28;17.00;99.90
8957;DHT22;4513;50.054;8.230;2022-08-21T02:59:57;17.00;99.90
8957;DHT22;4513;50.054;8.230;2022-08-21T03:02:23;16.90;99.90
8957;DHT22;4513;50.054;8.230;2022-08-21T03:04:52;16.90;99.90
8957;DHT22;4513;50.054;8.230;2022-08-21T03:07:18;16.80;99.90
8957;DHT22;4513;50.054;8.230;2022-08-21T03:09:45;16.80;99.90
8957;DHT22;4513;50.054;8.230;2022-08-21T03:12:12;16.80;99.90
8957;DHT22;4513;50.054;8.230;2022-08-21T03:14:39;16.70;99.90
8957;DHT22;4513;50.054;8.230;2022-08-21T03:17:05;16.70;99.90
8957;DHT22;4513;50.054;8.230;2022-08-21T03:19:32;16.80;99.90
8957;DHT22;4513;50.054;8.230;2022-08-21T03:22:01;16.70;99.90
8957;DHT22;4513;50.054;8.230;2022-08-21T03:24:28;16.70;99.90
8957;DHT22;4513;50.054;8.230;2022-08-21T03:26:54;16.70;99.90
8957;DHT22;4513;50.054;8.230;2022-08-21T03:29:21;16.70;99.90
8957;DHT22;4513;50.054;8.230;2022-08-21T03:31:48;16.70;99.90
8957;DHT22;4513;50.054;8.230;2022-08-21T03:34:15;16.60;99.90
8957;DHT22;4513;50.054;8.230;2022-08-21T03:36:41;16.60;99.90
8957;DHT22;4513;50.054;8.230;2022-08-21T03:39:10;16.60;99.90
8957;DHT22;4513;50.054;8.230;2022-08-21T03:41:36;16.60;99.90
8957;DHT22;4513;50.054;8.230;2022-08-21T03:44:03;16.60;99.90
8957;DHT22;4513;50.054;8.230;2022-08-21T03:46:30;16.50;99.90
8957;DHT22;4513;50.054;8.230;2022-08-21T03:48:57;16.50;99.90
8957;DHT22;4513;50.054;8.230;2022-08-21T03:51:24;16.40;99.90
8957;DHT22;4513;50.054;8.230;2022-08-21T03:53:51;16.40;99.90
8957;DHT22;4513;50.054;8.230;2022-08-21T03:56:19;16.40;99.90
8957;DHT22;4513;50.054;8.230;2022-08-21T03:58:45;16.40;99.90
8957;DHT22;4513;50.054;8.230;2022-08-21T04:01:12;16.30;99.90
8957;DHT22;4513;50.054;8.230;2022-08-21T04:03:39;16.30;99.90
8957;DHT22;4513;50.054;8.230;2022-08-21T04:06:06;16.20;99.90
8957;DHT22;4513;50.054;8.230;2022-08-21T04:08:33;16.30;99.90
8957;DHT22;4513;50.054;8.230;2022-08-21T04:11:01;16.30;99.90
8957;DHT22;4513;50.054;8.230;2022-08-21T04:13:29;16.30;99.90
8957;DHT22;4513;50.054;8.230;2022-08-21T04:15:56;16.20;99.90
8957;DHT22;4513;50.054;8.230;2022-08-21T04:18:24;16.00;99.90
8957;DHT22;4513;50.054;8.230;2022-08-21T04:20:52;15.90;99.90
8957;DHT22;4513;50.054;8.230;2022-08-21T04:23:20;15.90;99.90
8957;DHT22;4513;50.054;8.230;2022-08-21T04:25:47;16.00;99.90
8957;DHT22;4513;50.054;8.230;2022-08-21T04:28:14;16.00;99.90
8957;DHT22;4513;50.054;8.230;2022-08-21T04:30:42;16.00;99.90
8957;DHT22;4513;50.054;8.230;2022-08-21T04:33:09;16.00;99.90
8957;DHT22;4513;50.054;8.230;2022-08-21T04:35:36;16.00;99.90
8957;DHT22;4513;50.054;8.230;2022-08-21T04:38:03;16.00;99.90
8957;DHT22;4513;50.054;8.230;2022-08-21T04:40:30;16.00;99.90
8957;DHT22;4513;50.054;8.230;2022-08-21T04:42:58;16.10;99.90
8957;DHT22;4513;50.054;8.230;2022-08-21T04:45:28;16.10;99.90
8957;DHT22;4513;50.054;8.230;2022-08-21T04:47:59;16.10;99.90
8957;DHT22;4513;50.054;8.230;2022-08-21T04:50:29;16.00;99.90
8957;DHT22;4513;50.054;8.230;2022-08-21T04:52:56;16.00;99.90
8957;DHT22;4513;50.054;8.230;2022-08-21T04:55:26;16.10;99.90
8957;DHT22;4513;50.054;8.230;2022-08-21T04:57:54;16.20;99.90
8957;DHT22;4513;50.054;8.230;2022-08-21T05:00:23;16.20;99.90
8957;DHT22;4513;50.054;8.230;2022-08-21T05:02:51;16.00;99.90
8957;DHT22;4513;50.054;8.230;2022-08-21T05:05:23;15.90;99.90
8957;DHT22;4513;50.054;8.230;2022-08-21T05:07:51;15.90;99.90
8957;DHT22;4513;50.054;8.230;2022-08-21T05:10:18;15.90;99.90
8957;DHT22;4513;50.054;8.230;2022-08-21T05:12:45;16.00;99.90
8957;DHT22;4513;50.054;8.230;2022-08-21T05:15:12;15.90;99.90
8957;DHT22;4513;50.054;8.230;2022-08-21T05:17:40;16.00;99.90
8957;DHT22;4513;50.054;8.230;2022-08-21T05:20:08;15.90;99.90
8957;DHT22;4513;50.054;8.230;2022-08-21T05:22:36;16.00;99.90
8957;DHT22;4513;50.054;8.230;2022-08-21T05:25:04;16.00;99.90
8957;DHT22;4513;50.054;8.230;2022-08-21T05:27:32;16.10;99.90
8957;DHT22;4513;50.054;8.230;2022-08-21T05:29:58;16.20;99.90
8957;DHT22;4513;50.054;8.230;2022-08-21T05:32:25;16.20;99.90
8957;DHT22;4513;50.054;8.230;2022-08-21T05:34:53;16.30;99.90
8957;DHT22;4513;50.054;8.230;2022-08-21T05:37:21;16.50;99.90
8957;DHT22;4513;50.054;8.230;2022-08-21T05:39:49;16.50;99.90
8957;DHT22;4513;50.054;8.230;2022-08-21T05:42:15;16.50;99.90
8957;DHT22;4513;50.054;8.230;2022-08-21T05:44:42;16.60;99.90
8957;DHT22;4513;50.054;8.230;2022-08-21T05:47:10;16.70;99.90
8957;DHT22;4513;50.054;8.230;2022-08-21T05:49:38;16.70;99.90
8957;DHT22;4513;50.054;8.230;2022-08-21T05:52:05;16.80;99.90
8957;DHT22;4513;50.054;8.230;2022-08-21T05:54:32;16.80;99.90
8957;DHT22;4513;50.054;8.230;2022-08-21T05:57:03;16.90;99.90
8957;DHT22;4513;50.054;8.230;2022-08-21T05:59:30;17.00;99.90
8957;DHT22;4513;50.054;8.230;2022-08-21T06:01:57;17.00;99.90
8957;DHT22;4513;50.054;8.230;2022-08-21T06:04:24;17.10;99.90
8957;DHT22;4513;50.054;8.230;2022-08-21T06:06:50;17.10;99.90
8957;DHT22;4513;50.054;8.230;2022-08-21T06:09:17;17.10;99.90
8957;DHT22;4513;50.054;8.230;2022-08-21T06:11:44;17.20;99.90
8957;DHT22;4513;50.054;8.230;2022-08-21T06:14:15;17.20;99.90
8957;DHT22;4513;50.054;8.230;2022-08-21T06:16:42;17.40;99.90
8957;DHT22;4513;50.054;8.230;2022-08-21T06:19:09;17.40;99.90
8957;DHT22;4513;50.054;8.230;2022-08-21T06:21:35;17.50;99.90
8957;DHT22;4513;50.054;8.230;2022-08-21T06:24:03;17.60;99.90
8957;DHT22;4513;50.054;8.230;2022-08-21T06:26:30;17.60;99.90
8957;DHT22;4513;50.054;8.230;2022-08-21T06:28:57;17.60;99.90
8957;DHT22;4513;50.054;8.230;2022-08-21T06:31:27;17.80;99.90
8957;DHT22;4513;50.054;8.230;2022-08-21T06:33:54;17.90;99.90
8957;DHT22;4513;50.054;8.230;2022-08-21T06:36:21;17.90;99.90
8957;DHT22;4513;50.054;8.230;2022-08-21T06:38:49;18.10;99.90
8957;DHT22;4513;50.054;8.230;2022-08-21T06:41:16;18.10;99.90
8957;DHT22;4513;50.054;8.230;2022-08-21T06:43:42;18.20;99.90
8957;DHT22;4513;50.054;8.230;2022-08-21T06:46:09;18.20;99.90
8957;DHT22;4513;50.054;8.230;2022-08-21T06:48:38;18.30;99.90
8957;DHT22;4513;50.054;8.230;2022-08-21T06:51:04;18.40;99.90
8957;DHT22;4513;50.054;8.230;2022-08-21T06:53:31;18.60;99.90
8957;DHT22;4513;50.054;8.230;2022-08-21T06:55:59;18.70;99.90
8957;DHT22;4513;50.054;8.230;2022-08-21T06:58:25;19.00;99.90
8957;DHT22;4513;50.054;8.230;2022-08-21T07:00:53;19.10;99.90
8957;DHT22;4513;50.054;8.230;2022-08-21T07:03:22;19.10;99.90
8957;DHT22;4513;50.054;8.230;2022-08-21T07:05:51;19.20;99.90
8957;DHT22;4513;50.054;8.230;2022-08-21T07:08:18;19.20;99.90
8957;DHT22;4513;50.054;8.230;2022-08-21T07:10:46;19.30;99.90
8957;DHT22;4513;50.054;8.230;2022-08-21T07:13:14;19.40;99.90
8957;DHT22;4513;50.054;8.230;2022-08-21T07:15:41;19.50;99.90
8957;DHT22;4513;50.054;8.230;2022-08-21T07:18:08;19.50;99.90
8957;DHT22;4513;50.054;8.230;2022-08-21T07:20:35;19.50;99.90
8957;DHT22;4513;50.054;8.230;2022-08-21T07:23:06;19.60;99.90
8957;DHT22;4513;50.054;8.230;2022-08-21T07:25:34;19.80;99.90
8957;DHT22;4513;50.054;8.230;2022-08-21T07:28:01;19.80;99.90
8957;DHT22;4513;50.054;8.230;2022-08-21T07:30:29;20.00;99.90
8957;DHT22;4513;50.054;8.230;2022-08-21T07:32:56;20.10;99.90
8957;DHT22;4513;50.054;8.230;2022-08-21T07:35:23;20.20;99.90
8957;DHT22;4513;50.054;8.230;2022-08-21T07:37:50;20.30;99.90
8957;DHT22;4513;50.054;8.230;2022-08-21T07:40:19;20.40;99.90
8957;DHT22;4513;50.054;8.230;2022-08-21T07:42:47;20.50;99.90
8957;DHT22;4513;50.054;8.230;2022-08-21T07:45:18;20.60;99.90
8957;DHT22;4513;50.054;8.230;2022-08-21T07:47:45;20.80;99.90
8957;DHT22;4513;50.054;8.230;2022-08-21T07:50:14;20.90;99.90
8957;DHT22;4513;50.054;8.230;2022-08-21T07:52:41;21.10;99.90
8957;DHT22;4513;50.054;8.230;2022-08-21T07:55:10;21.20;99.40
8957;DHT22;4513;50.054;8.230;2022-08-21T07:57:39;21.20;99.70
8957;DHT22;4513;50.054;8.230;2022-08-21T08:00:09;21.30;98.90
8957;DHT22;4513;50.054;8.230;2022-08-21T08:02:36;21.50;99.10
8957;DHT22;4513;50.054;8.230;2022-08-21T08:05:05;21.60;98.80
8957;DHT22;4513;50.054;8.230;2022-08-21T08:07:32;21.70;97.60
8957;DHT22;4513;50.054;8.230;2022-08-21T08:09:59;21.70;97.60
8957;DHT22;4513;50.054;8.230;2022-08-21T08:12:26;22.00;97.30
8957;DHT22;4513;50.054;8.230;2022-08-21T08:14:56;22.20;97.40
8957;DHT22;4513;50.054;8.230;2022-08-21T08:17:23;22.40;96.00
8957;DHT22;4513;50.054;8.230;2022-08-21T08:19:50;22.60;96.10
8957;DHT22;4513;50.054;8.230;2022-08-21T08:22:19;22.80;95.20
8957;DHT22;4513;50.054;8.230;2022-08-21T08:24:47;23.10;94.60
8957;DHT22;4513;50.054;8.230;2022-08-21T08:27:14;23.60;93.90
8957;DHT22;4513;50.054;8.230;2022-08-21T08:29:41;23.90;93.40
8957;DHT22;4513;50.054;8.230;2022-08-21T08:32:10;24.80;91.70
8957;DHT22;4513;50.054;8.230;2022-08-21T08:34:38;25.60;90.40
8957;DHT22;4513;50.054;8.230;2022-08-21T08:37:06;26.10;87.90
8957;DHT22;4513;50.054;8.230;2022-08-21T08:39:34;26.40;85.50
8957;DHT22;4513;50.054;8.230;2022-08-21T08:42:06;26.90;84.80
8957;DHT22;4513;50.054;8.230;2022-08-21T08:44:35;27.40;82.50
8957;DHT22;4513;50.054;8.230;2022-08-21T08:47:03;27.70;83.60
8957;DHT22;4513;50.054;8.230;2022-08-21T08:49:37;28.10;81.50
8957;DHT22;4513;50.054;8.230;2022-08-21T08:52:18;28.60;78.10
8957;DHT22;4513;50.054;8.230;2022-08-21T08:55:01;28.70;77.00
8957;DHT22;4513;50.054;8.230;2022-08-21T08:57:29;28.80;77.10
8957;DHT22;4513;50.054;8.230;2022-08-21T08:59:59;28.10;74.60
8957;DHT22;4513;50.054;8.230;2022-08-21T09:02:26;27.80;74.10
8957;DHT22;4513;50.054;8.230;2022-08-21T09:04:56;28.50;74.00
8957;DHT22;4513;50.054;8.230;2022-08-21T09:07:31;28.80;72.00
8957;DHT22;4513;50.054;8.230;2022-08-21T09:10:13;29.80;67.80
8957;DHT22;4513;50.054;8.230;2022-08-21T09:12:51;30.40;66.20
8957;DHT22;4513;50.054;8.230;2022-08-21T09:15:25;29.80;67.60
8957;DHT22;4513;50.054;8.230;2022-08-21T09:18:04;29.50;68.50
8957;DHT22;4513;50.054;8.230;2022-08-21T09:20:39;29.50;67.90
8957;DHT22;4513;50.054;8.230;2022-08-21T09:23:19;29.50;68.50
8957;DHT22;4513;50.054;8.230;2022-08-21T09:26:05;29.80;67.40
8957;DHT22;4513;50.054;8.230;2022-08-21T09:28:34;30.00;66.90
8957;DHT22;4513;50.054;8.230;2022-08-21T09:31:04;29.30;67.60
8957;DHT22;4513;50.054;8.230;2022-08-21T09:33:32;29.80;67.10
8957;DHT22;4513;50.054;8.230;2022-08-21T09:36:00;29.80;65.50
8957;DHT22;4513;50.054;8.230;2022-08-21T09:38:29;30.30;65.40
8957;DHT22;4513;50.054;8.230;2022-08-21T09:41:00;29.80;64.80
8957;DHT22;4513;50.054;8.230;2022-08-21T09:43:28;28.90;67.60
8957;DHT22;4513;50.054;8.230;2022-08-21T09:46:04;29.40;68.00
8957;DHT22;4513;50.054;8.230;2022-08-21T09:48:40;29.30;66.90
8957;DHT22;4513;50.054;8.230;2022-08-21T09:51:10;29.40;67.30
8957;DHT22;4513;50.054;8.230;2022-08-21T09:53:41;29.60;65.70
8957;DHT22;4513;50.054;8.230;2022-08-21T09:56:19;29.90;65.30
8957;DHT22;4513;50.054;8.230;2022-08-21T09:59:14;29.80;64.50
8957;DHT22;4513;50.054;8.230;2022-08-21T10:01:46;29.40;65.30
8957;DHT22;4513;50.054;8.230;2022-08-21T10:04:14;29.20;65.70
8957;DHT22;4513;50.054;8.230;2022-08-21T10:06:42;29.10;66.30
8957;DHT22;4513;50.054;8.230;2022-08-21T10:09:12;29.20;67.10
8957;DHT22;4513;50.054;8.230;2022-08-21T10:11:40;29.10;67.30
8957;DHT22;4513;50.054;8.230;2022-08-21T10:14:18;29.10;66.30
8957;DHT22;4513;50.054;8.230;2022-08-21T10:16:56;29.10;68.40
8957;DHT22;4513;50.054;8.230;2022-08-21T10:19:34;29.60;65.60
8957;DHT22;4513;50.054;8.230;2022-08-21T10:22:15;29.50;66.00
8957;DHT22;4513;50.054;8.230;2022-08-21T10:24:52;29.40;65.20
8957;DHT22;4513;50.054;8.230;2022-08-21T10:27:31;29.20;66.50
8957;DHT22;4513;50.054;8.230;2022-08-21T10:30:07;29.10;66.80
8957;DHT22;4513;50.054;8.230;2022-08-21T10:32:59;29.20;66.30
8957;DHT22;4513;50.054;8.230;2022-08-21T10:35:29;28.90;66.60
8957;DHT22;4513;50.054;8.230;2022-08-21T10:38:32;28.80;66.30
8957;DHT22;4513;50.054;8.230;2022-08-21T10:41:07;28.70;66.20
8957;DHT22;4513;50.054;8.230;2022-08-21T10:43:41;28.80;65.50
8957;DHT22;4513;50.054;8.230;2022-08-21T10:46:17;28.70;66.70
8957;DHT22;4513;50.054;8.230;2022-08-21T10:48:49;28.30;67.00
8957;DHT22;4513;50.054;8.230;2022-08-21T10:51:25;28.00;67.80
8957;DHT22;4513;50.054;8.230;2022-08-21T10:54:00;28.20;67.40
8957;DHT22;4513;50.054;8.230;2022-08-21T10:56:32;28.00;67.10
8957;DHT22;4513;50.054;8.230;2022-08-21T10:59:19;28.10;67.70
8957;DHT22;4513;50.054;8.230;2022-08-21T11:01:52;27.70;67.40
8957;DHT22;4513;50.054;8.230;2022-08-21T11:04:24;27.80;66.50
8957;DHT22;4513;50.054;8.230;2022-08-21T11:07:00;27.60;67.30
8957;DHT22;4513;50.054;8.230;2022-08-21T11:09:30;27.40;67.50
8957;DHT22;4513;50.054;8.230;2022-08-21T11:12:03;27.40;67.30
8957;DHT22;4513;50.054;8.230;2022-08-21T11:14:39;27.40;68.30
8957;DHT22;4513;50.054;8.230;2022-08-21T11:17:10;27.30;68.20
8957;DHT22;4513;50.054;8.230;2022-08-21T11:19:42;27.50;68.40
8957;DHT22;4513;50.054;8.230;2022-08-21T11:22:17;27.70;68.20
8957;DHT22;4513;50.054;8.230;2022-08-21T11:24:49;27.80;68.80
8957;DHT22;4513;50.054;8.230;2022-08-21T11:27:21;27.80;68.70
8957;DHT22;4513;50.054;8.230;2022-08-21T11:29:52;28.00;69.40
8957;DHT22;4513;50.054;8.230;2022-08-21T11:35:33;27.80;66.80
8957;DHT22;4513;50.054;8.230;2022-08-21T11:38:15;27.90;66.40
8957;DHT22;4513;50.054;8.230;2022-08-21T11:41:06;27.80;66.60
8957;DHT22;4513;50.054;8.230;2022-08-21T11:43:40;28.00;66.80
8957;DHT22;4513;50.054;8.230;2022-08-21T11:46:17;28.20;66.10
8957;DHT22;4513;50.054;8.230;2022-08-21T11:48:55;28.40;65.90
8957;DHT22;4513;50.054;8.230;2022-08-21T11:51:28;28.20;64.90
8957;DHT22;4513;50.054;8.230;2022-08-21T11:54:03;28.10;65.70
8957;DHT22;4513;50.054;8.230;2022-08-21T11:56:35;28.20;65.40
8957;DHT22;4513;50.054;8.230;2022-08-21T11:59:09;28.20;64.60
8957;DHT22;4513;50.054;8.230;2022-08-21T12:01:39;28.20;65.10
8957;DHT22;4513;50.054;8.230;2022-08-21T12:04:10;28.30;65.10
8957;DHT22;4513;50.054;8.230;2022-08-21T12:06:43;28.30;66.50
8957;DHT22;4513;50.054;8.230;2022-08-21T12:12:04;28.40;64.00
8957;DHT22;4513;50.054;8.230;2022-08-21T12:14:39;28.60;63.60
8957;DHT22;4513;50.054;8.230;2022-08-21T12:17:08;28.60;63.90
8957;DHT22;4513;50.054;8.230;2022-08-21T12:19:35;28.40;64.20
8957;DHT22;4513;50.054;8.230;2022-08-21T12:22:10;28.40;64.70
8957;DHT22;4513;50.054;8.230;2022-08-21T12:24:39;28.40;64.60
8957;DHT22;4513;50.054;8.230;2022-08-21T12:27:27;28.30;64.30
8957;DHT22;4513;50.054;8.230;2022-08-21T12:29:56;28.10;65.10
8957;DHT22;4513;50.054;8.230;2022-08-21T12:32:27;28.50;65.50
8957;DHT22;4513;50.054;8.230;2022-08-21T12:35:01;28.90;62.90
8957;DHT22;4513;50.054;8.230;2022-08-21T12:37:36;28.70;62.60
8957;DHT22;4513;50.054;8.230;2022-08-21T12:40:10;28.80;63.00
8957;DHT22;4513;50.054;8.230;2022-08-21T12:42:44;29.00;64.40
8957;DHT22;4513;50.054;8.230;2022-08-21T12:45:18;29.10;63.10
8957;DHT22;4513;50.054;8.230;2022-08-21T12:47:48;29.10;62.40
8957;DHT22;4513;50.054;8.230;2022-08-21T12:50:20;29.30;63.10
8957;DHT22;4513;50.054;8.230;2022-08-21T12:53:00;29.30;61.90
8957;DHT22;4513;50.054;8.230;2022-08-21T12:55:32;29.30;63.40
8957;DHT22;4513;50.054;8.230;2022-08-21T12:58:01;29.30;61.30
8957;DHT22;4513;50.054;8.230;2022-08-21T13:00:29;29.50;62.80
8957;DHT22;4513;50.054;8.230;2022-08-21T13:02:56;29.50;62.00
8957;DHT22;4513;50.054;8.230;2022-08-21T13:05:31;29.40;60.20
8957;DHT22;4513;50.054;8.230;2022-08-21T13:08:03;29.50;61.30
8957;DHT22;4513;50.054;8.230;2022-08-21T13:10:33;29.30;61.90
8957;DHT22;4513;50.054;8.230;2022-08-21T13:13:05;29.50;60.00
8957;DHT22;4513;50.054;8.230;2022-08-21T13:15:34;29.40;60.80
8957;DHT22;4513;50.054;8.230;2022-08-21T13:18:03;29.30;61.20
8957;DHT22;4513;50.054;8.230;2022-08-21T13:20:33;29.50;60.50
8957;DHT22;4513;50.054;8.230;2022-08-21T13:23:01;29.40;60.80
8957;DHT22;4513;50.054;8.230;2022-08-21T13:25:33;29.50;60.70
8957;DHT22;4513;50.054;8.230;2022-08-21T13:28:06;29.50;61.20
8957;DHT22;4513;50.054;8.230;2022-08-21T13:30:37;29.50;61.40
8957;DHT22;4513;50.054;8.230;2022-08-21T13:33:06;29.60;60.30
8957;DHT22;4513;50.054;8.230;2022-08-21T13:35:44;29.10;60.50
8957;DHT22;4513;50.054;8.230;2022-08-21T13:38:12;29.20;61.10
8957;DHT22;4513;50.054;8.230;2022-08-21T13:40:44;29.10;60.30
8957;DHT22;4513;50.054;8.230;2022-08-21T13:43:14;29.30;61.40
8957;DHT22;4513;50.054;8.230;2022-08-21T13:45:44;29.50;61.00
8957;DHT22;4513;50.054;8.230;2022-08-21T13:48:13;29.60;60.70
8957;DHT22;4513;50.054;8.230;2022-08-21T13:50:41;29.70;59.50
8957;DHT22;4513;50.054;8.230;2022-08-21T13:53:20;29.50;59.60
8957;DHT22;4513;50.054;8.230;2022-08-21T13:55:48;29.00;59.30
8957;DHT22;4513;50.054;8.230;2022-08-21T13:58:25;29.00;59.90
8957;DHT22;4513;50.054;8.230;2022-08-21T14:00:54;29.20;59.30
8957;DHT22;4513;50.054;8.230;2022-08-21T14:03:32;29.30;59.40
8957;DHT22;4513;50.054;8.230;2022-08-21T14:06:00;29.20;59.10
8957;DHT22;4513;50.054;8.230;2022-08-21T14:08:32;29.10;59.90
8957;DHT22;4513;50.054;8.230;2022-08-21T14:11:02;29.10;59.80
8957;DHT22;4513;50.054;8.230;2022-08-21T14:13:37;29.30;59.80
8957;DHT22;4513;50.054;8.230;2022-08-21T14:16:13;29.30;59.70
8957;DHT22;4513;50.054;8.230;2022-08-21T14:18:49;29.60;59.70
8957;DHT22;4513;50.054;8.230;2022-08-21T14:21:27;29.30;59.30
8957;DHT22;4513;50.054;8.230;2022-08-21T14:24:06;29.30;59.10
8957;DHT22;4513;50.054;8.230;2022-08-21T14:26:35;29.30;59.70
8957;DHT22;4513;50.054;8.230;2022-08-21T14:29:08;29.30;59.50
8957;DHT22;4513;50.054;8.230;2022-08-21T14:31:35;29.30;59.70
8957;DHT22;4513;50.054;8.230;2022-08-21T14:34:02;29.30;58.60
8957;DHT22;4513;50.054;8.230;2022-08-21T14:36:29;29.30;58.80
8957;DHT22;4513;50.054;8.230;2022-08-21T14:38:56;29.20;59.50
8957;DHT22;4513;50.054;8.230;2022-08-21T14:41:24;29.30;58.60
8957;DHT22;4513;50.054;8.230;2022-08-21T14:43:54;29.20;58.70
8957;DHT22;4513;50.054;8.230;2022-08-21T14:46:25;29.20;58.20
8957;DHT22;4513;50.054;8.230;2022-08-21T14:48:52;29.20;58.70
8957;DHT22;4513;50.054;8.230;2022-08-21T14:51:19;29.20;58.80
8957;DHT22;4513;50.054;8.230;2022-08-21T14:53:47;29.20;59.00
8957;DHT22;4513;50.054;8.230;2022-08-21T14:56:15;29.20;59.30
8957;DHT22;4513;50.054;8.230;2022-08-21T14:58:43;29.20;58.80
8957;DHT22;4513;50.054;8.230;2022-08-21T15:01:12;29.20;58.40
8957;DHT22;4513;50.054;8.230;2022-08-21T15:03:40;29.30;58.10
8957;DHT22;4513;50.054;8.230;2022-08-21T15:06:08;29.30;58.00
8957;DHT22;4513;50.054;8.230;2022-08-21T15:08:36;29.30;58.00
8957;DHT22;4513;50.054;8.230;2022-08-21T15:11:04;29.40;58.70
8957;DHT22;4513;50.054;8.230;2022-08-21T15:13:32;29.20;57.80
8957;DHT22;4513;50.054;8.230;2022-08-21T15:15:59;29.00;58.50
8957;DHT22;4513;50.054;8.230;2022-08-21T15:18:28;29.00;58.20
8957;DHT22;4513;50.054;8.230;2022-08-21T15:20:56;29.00;58.00
8957;DHT22;4513;50.054;8.230;2022-08-21T15:23:23;29.10;57.80
8957;DHT22;4513;50.054;8.230;2022-08-21T15:25:52;29.10;57.80
8957;DHT22;4513;50.054;8.230;2022-08-21T15:28:19;29.20;59.40
8957;DHT22;4513;50.054;8.230;2022-08-21T15:30:48;29.20;57.50
8957;DHT22;4513;50.054;8.230;2022-08-21T15:33:16;29.20;58.10
8957;DHT22;4513;50.054;8.230;2022-08-21T15:35:42;28.90;57.70
8957;DHT22;4513;50.054;8.230;2022-08-21T15:38:12;28.90;58.80
8957;DHT22;4513;50.054;8.230;2022-08-21T15:40:41;29.00;58.40
8957;DHT22;4513;50.054;8.230;2022-08-21T15:43:19;29.10;57.50
8957;DHT22;4513;50.054;8.230;2022-08-21T15:45:47;29.20;57.30
8957;DHT22;4513;50.054;8.230;2022-08-21T15:48:14;29.10;56.30
8957;DHT22;4513;50.054;8.230;2022-08-21T15:50:41;29.20;56.60
8957;DHT22;4513;50.054;8.230;2022-08-21T15:53:08;29.30;56.90
8957;DHT22;4513;50.054;8.230;2022-08-21T15:55:36;29.40;56.30
8957;DHT22;4513;50.054;8.230;2022-08-21T15:58:05;29.30;56.80
8957;DHT22;4513;50.054;8.230;2022-08-21T16:00:35;29.20;56.90
8957;DHT22;4513;50.054;8.230;2022-08-21T16:03:04;29.00;57.10
8957;DHT22;4513;50.054;8.230;2022-08-21T16:05:32;28.70;56.80
8957;DHT22;4513;50.054;8.230;2022-08-21T16:07:59;28.60;57.20
8957;DHT22;4513;50.054;8.230;2022-08-21T16:10:26;28.60;57.30
8957;DHT22;4513;50.054;8.230;2022-08-21T16:12:57;28.40;57.40
8957;DHT22;4513;50.054;8.230;2022-08-21T16:15:25;28.30;57.60
8957;DHT22;4513;50.054;8.230;2022-08-21T16:17:53;28.30;57.50
8957;DHT22;4513;50.054;8.230;2022-08-21T16:20:24;28.10;57.50
8957;DHT22;4513;50.054;8.230;2022-08-21T16:22:51;28.10;57.40
8957;DHT22;4513;50.054;8.230;2022-08-21T16:25:18;27.90;58.20